Himeji, Japan
Current Conditions -  °F | °C
As of 4:00 PM on Sunday 23 Nov 2014 (Local Time) from RJBE Reporting Station
Broken Clouds Broken Clouds  
Wind Chill: 64°   Ceiling: Unl
Heat Index: 64°   Visibility: 6mi
Dew Point: 45°   Wind: 12mph
Humidity: 49%   Direction: 10°N
Pressure: 30.18"   Gusts: NA
Location:  34.83°N, 134.69°E
Report Text: RJBE 230700Z 01010KT 9999 FEW030 BKN/// 18/07 Q1022
Loading
Personal Weather Stations






























Interactive Weather Map New forecast layout! Learn more

10-Day Weather Forecast

Advertisements
Track Severe Weather on mobile